Time;durP1;ratioP1;P1;durP2;ratioP2;P2;SDS_P1;SDS_P2;PMS_P1;PMS_P2;Temp;Humidity;BMP_temperature;BMP_pressure;BME280_temperature;BME280_humidity;BME280_pressure;Samples;Min_cycle;Max_cycle;Signal;HPM_P1;HPM_P2
2023/10/19 00:00:39;;;;;;;11.53;10.10;;;11.90;50.60;;;;;;5034876;28;20457;-69
2023/10/19 00:03:06;;;;;;;13.90;10.83;;;11.90;51.10;;;;;;5034848;28;20778;-69
2023/10/19 00:05:32;;;;;;;11.70;10.47;;;12.10;49.10;;;;;;5034601;28;20451;-69
2023/10/19 00:07:59;;;;;;;10.10;8.97;;;12.10;49.30;;;;;;5033219;28;20414;-69
2023/10/19 00:10:29;;;;;;;14.53;9.43;;;12.10;49.20;;;;;;5033473;28;20433;-70
2023/10/19 00:13:05;;;;;;;9.40;8.00;;;12.10;50.20;;;;;;5034834;28;20793;-70
2023/10/19 00:15:34;;;;;;;7.97;6.53;;;12.10;51.80;;;;;;5034949;28;20438;-71
2023/10/19 00:18:08;;;;;;;6.13;5.13;;;12.20;53.20;;;;;;5033457;28;20419;-71
2023/10/19 00:23:18;;;;;;;5.63;4.90;;;12.30;53.40;;;;;;5034809;28;20497;-71
2023/10/19 00:25:49;;;;;;;7.70;5.30;;;12.40;53.20;;;;;;5034610;28;20944;-71
2023/10/19 00:28:17;;;;;;;7.30;3.93;;;12.50;52.20;;;;;;5034683;28;20415;-71
2023/10/19 00:30:43;;;;;;;4.90;3.97;;;12.60;52.30;;;;;;5033309;28;20411;-71
2023/10/19 00:33:21;;;;;;;6.27;5.10;;;12.60;51.70;;;;;;5034450;28;20419;-70
2023/10/19 00:36:06;;;;;;;5.50;4.00;;;12.70;52.50;;;;;;5034366;28;20428;-73
2023/10/19 00:41:11;;;;;;;4.97;4.03;;;12.80;51.80;;;;;;5034217;28;20953;-70
2023/10/19 00:43:44;;;;;;;5.43;3.30;;;12.90;52.10;;;;;;5033566;28;20775;-71
2023/10/19 00:48:54;;;;;;;3.60;3.23;;;13.00;52.10;;;;;;5034202;28;20515;-70
2023/10/19 00:51:27;;;;;;;4.80;3.27;;;13.10;51.60;;;;;;5034439;28;20420;-70
2023/10/19 00:54:08;;;;;;;3.50;2.37;;;13.20;51.90;;;;;;5034140;28;20430;-71
2023/10/19 00:56:34;;;;;;;5.30;2.33;;;13.30;51.00;;;;;;5034165;28;20401;-71
2023/10/19 00:59:12;;;;;;;5.00;3.30;;;13.30;50.90;;;;;;5033751;28;20467;-71
2023/10/19 01:01:43;;;;;;;3.90;3.27;;;13.30;51.30;;;;;;5034288;28;20451;-70
2023/10/19 01:04:14;;;;;;;8.10;6.20;;;13.30;52.60;;;;;;5033795;28;20449;-70
2023/10/19 01:07:00;;;;;;;7.77;6.53;;;13.30;51.10;;;;;;5033942;28;20501;-70
2023/10/19 01:09:28;;;;;;;4.27;3.70;;;13.20;50.80;;;;;;5034002;28;20427;-70
2023/10/19 01:11:54;;;;;;;4.93;3.73;;;13.20;53.40;;;;;;5033993;28;20422;-71
2023/10/19 01:14:21;;;;;;;4.00;3.30;;;13.20;54.20;;;;;;5033669;28;20482;-71
2023/10/19 01:16:49;;;;;;;5.27;3.87;;;13.20;55.80;;;;;;5033682;28;20201;-70
2023/10/19 01:19:18;;;;;;;4.00;3.30;;;13.30;54.40;;;;;;5033696;28;20445;-71
2023/10/19 01:21:50;;;;;;;5.70;3.53;;;13.30;56.00;;;;;;5033631;28;20900;-70
2023/10/19 01:24:17;;;;;;;4.90;3.03;;;13.30;56.20;;;;;;5033542;28;20648;-70
2023/10/19 01:26:42;;;;;;;4.17;3.23;;;13.20;58.00;;;;;;5033527;28;20438;-70
2023/10/19 01:29:17;;;;;;;3.23;2.50;;;13.30;57.60;;;;;;5033752;28;20493;-70
2023/10/19 01:32:06;;;;;;;4.00;2.40;;;13.40;56.30;;;;;;5033434;28;20162;-70
2023/10/19 01:34:33;;;;;;;9.03;2.73;;;13.50;55.40;;;;;;5031996;28;20445;-70
2023/10/19 01:37:02;;;;;;;3.40;2.53;;;13.50;53.70;;;;;;5033259;28;20526;-71
2023/10/19 01:39:29;;;;;;;6.30;3.03;;;13.60;52.60;;;;;;5033209;28;20473;-70
2023/10/19 01:41:55;;;;;;;2.87;2.57;;;13.70;49.70;;;;;;5031783;28;20413;-70
2023/10/19 01:44:21;;;;;;;6.37;3.80;;;13.80;48.90;;;;;;5033699;28;20434;-70
2023/10/19 01:46:48;;;;;;;3.27;2.10;;;13.90;47.60;;;;;;5033397;28;20421;-70
2023/10/19 01:49:13;;;;;;;4.63;3.00;;;13.90;48.10;;;;;;5033194;28;20471;-70
2023/10/19 01:51:39;;;;;;;2.50;1.90;;;13.90;46.60;;;;;;5031843;28;20425;-71
2023/10/19 01:54:08;;;;;;;3.70;2.60;;;14.00;46.60;;;;;;5032810;28;20258;-71
2023/10/19 01:56:35;;;;;;;3.23;2.30;;;14.00;44.90;;;;;;5033112;28;20178;-70
2023/10/19 01:59:03;;;;;;;4.40;2.53;;;14.10;44.30;;;;;;5033107;28;20418;-70
2023/10/19 02:01:28;;;;;;;4.00;2.40;;;14.20;42.90;;;;;;5033045;28;20410;-70
2023/10/19 02:04:05;;;;;;;4.10;2.00;;;14.20;42.70;;;;;;5032779;28;21036;-70
2023/10/19 02:06:36;;;;;;;3.97;2.13;;;14.30;42.10;;;;;;5054036;23;20723;-72
2023/10/19 02:09:18;;;;;;;7.73;2.57;;;14.40;41.50;;;;;;5032362;28;20418;-71
2023/10/19 02:11:48;;;;;;;5.23;4.20;;;14.40;42.10;;;;;;5032319;28;20394;-70
2023/10/19 02:14:15;;;;;;;10.33;6.83;;;14.20;42.90;;;;;;5032272;28;20410;-71
2023/10/19 02:16:59;;;;;;;15.93;12.47;;;14.20;40.60;;;;;;5031995;28;20438;-71
2023/10/19 02:19:28;;;;;;;14.07;12.57;;;13.80;38.30;;;;;;5030831;28;20488;-69
2023/10/19 02:21:56;;;;;;;13.67;12.03;;;13.50;39.90;;;;;;5032241;28;20412;-70
2023/10/19 02:24:22;;;;;;;13.80;11.87;;;13.30;41.90;;;;;;5032053;28;20429;-70
2023/10/19 02:26:53;;;;;;;13.77;11.73;;;13.10;42.60;;;;;;5031943;28;20410;-69
2023/10/19 02:29:18;;;;;;;13.33;11.93;;;13.00;43.60;;;;;;5032133;28;20416;-70
2023/10/19 02:31:44;;;;;;;16.00;11.57;;;12.90;45.00;;;;;;5032355;28;20426;-71
2023/10/19 02:34:14;;;;;;;15.20;12.20;;;12.80;47.20;;;;;;5031859;28;20255;-70
2023/10/19 02:36:41;;;;;;;12.83;11.53;;;12.70;49.10;;;;;;5031848;28;20513;-70
2023/10/19 02:39:09;;;;;;;13.47;12.10;;;12.70;50.30;;;;;;5031764;28;20937;-69
2023/10/19 02:41:39;;;;;;;14.30;12.47;;;12.70;50.70;;;;;;5031737;28;20878;-70
2023/10/19 02:46:49;;;;;;;12.87;11.23;;;12.50;53.60;;;;;;5031859;28;20418;-70
2023/10/19 02:49:18;;;;;;;15.90;11.17;;;12.40;53.50;;;;;;5031746;28;20421;-70
2023/10/19 02:51:45;;;;;;;9.20;8.27;;;12.40;55.30;;;;;;5030286;28;20818;-70
2023/10/19 02:54:24;;;;;;;14.03;9.23;;;12.30;55.60;;;;;;5029663;28;20414;-69
2023/10/19 02:56:56;;;;;;;11.80;7.50;;;12.30;57.60;;;;;;5030530;28;20439;-70
2023/10/19 02:59:23;;;;;;;7.53;6.20;;;12.30;59.80;;;;;;5031918;28;20546;-74
2023/10/19 03:04:38;;;;;;;6.63;5.40;;;12.40;60.50;;;;;;5032664;28;20414;-72
2023/10/19 03:07:04;;;;;;;8.63;4.73;;;12.50;60.50;;;;;;5032111;28;20455;-72
2023/10/19 03:09:31;;;;;;;6.30;4.67;;;12.40;60.10;;;;;;5032399;28;20456;-71
2023/10/19 03:12:03;;;;;;;8.83;4.53;;;12.40;60.60;;;;;;5030572;28;20500;-69
2023/10/19 03:14:29;;;;;;;8.10;4.60;;;12.40;60.10;;;;;;5031731;28;20957;-72
2023/10/19 03:16:59;;;;;;;6.23;3.83;;;12.50;59.70;;;;;;5031755;28;20416;-71
2023/10/19 03:19:28;;;;;;;5.83;4.33;;;12.50;59.30;;;;;;5031820;28;20463;-70
2023/10/19 03:21:55;;;;;;;4.80;3.67;;;12.40;58.60;;;;;;5031841;28;20413;-73
2023/10/19 03:24:35;;;;;;;5.30;3.70;;;12.40;58.30;;;;;;5032043;28;20955;-72
2023/10/19 03:27:21;;;;;;;5.50;4.77;;;12.40;58.50;;;;;;5032316;28;20464;-72
2023/10/19 03:30:14;;;;;;;6.17;4.60;;;12.40;58.30;;;;;;5030588;28;20422;-73
2023/10/19 03:32:34;;;;;;;9.50;7.90;;;12.30;58.00;;;;;;5030618;28;20429;-71
2023/10/19 03:35:03;;;;;;;10.00;8.97;;;12.20;56.80;;;;;;5031148;28;20596;-69
2023/10/19 03:37:34;;;;;;;12.57;10.70;;;12.10;58.40;;;;;;5031051;28;20909;-71
2023/10/19 03:40:06;;;;;;;12.93;11.07;;;11.90;58.70;;;;;;5031056;28;20453;-69
2023/10/19 03:42:40;;;;;;;13.33;10.37;;;11.80;58.70;;;;;;5031025;28;20921;-72
2023/10/19 03:45:12;;;;;;;12.60;11.40;;;11.70;60.20;;;;;;5030920;28;20840;-70
2023/10/19 03:47:38;;;;;;;14.13;12.53;;;11.70;59.70;;;;;;5030837;28;20493;-70
2023/10/19 03:50:07;;;;;;;17.33;14.83;;;11.50;60.90;;;;;;5031002;28;20832;-69
2023/10/19 03:52:39;;;;;;;20.10;15.60;;;11.40;62.20;;;;;;5031049;28;20873;-70
2023/10/19 03:55:14;;;;;;;20.87;18.57;;;11.30;62.30;;;;;;5029633;28;20446;-69
2023/10/19 03:57:46;;;;;;;20.90;18.70;;;11.20;65.60;;;;;;5029584;28;20417;-70
2023/10/19 04:00:24;;;;;;;19.73;17.70;;;11.20;66.00;;;;;;5031041;28;20486;-71
2023/10/19 04:02:55;;;;;;;21.63;18.27;;;11.20;64.80;;;;;;5031081;28;20505;-70
2023/10/19 04:05:22;;;;;;;15.67;14.07;;;11.10;64.40;;;;;;5031664;28;20453;-69
2023/10/19 04:07:54;;;;;;;20.17;17.77;;;11.10;65.90;;;;;;5033371;28;20428;-70
2023/10/19 04:10:29;;;;;;;20.43;17.17;;;11.10;65.30;;;;;;5033405;28;20430;-70
2023/10/19 04:12:55;;;;;;;16.17;14.60;;;11.00;65.00;;;;;;5033604;28;20425;-70
2023/10/19 04:15:21;;;;;;;18.40;16.40;;;11.10;64.70;;;;;;5034352;28;20446;-70
2023/10/19 04:17:48;;;;;;;15.43;13.83;;;11.00;65.00;;;;;;5034401;28;20551;-70
2023/10/19 04:22:43;;;;;;;15.67;13.97;;;11.00;66.50;;;;;;5034674;28;21002;-68
2023/10/19 04:25:12;;;;;;;16.07;14.33;;;10.90;67.10;;;;;;5034496;28;20460;-71
2023/10/19 04:27:39;;;;;;;15.20;13.60;;;10.80;65.60;;;;;;5034079;28;20418;-70
2023/10/19 04:30:15;;;;;;;16.47;13.10;;;10.80;67.00;;;;;;5034354;28;20418;-71
2023/10/19 04:32:41;;;;;;;16.60;13.20;;;10.80;67.60;;;;;;5033128;28;20513;-71
2023/10/19 04:35:09;;;;;;;13.33;11.20;;;10.80;67.00;;;;;;5034152;28;20578;-70
2023/10/19 04:37:35;;;;;;;15.37;13.07;;;10.70;66.50;;;;;;5033939;28;20426;-69
2023/10/19 04:40:00;;;;;;;16.43;11.80;;;10.70;66.50;;;;;;5032665;28;20876;-72
2023/10/19 04:42:27;;;;;;;15.30;11.97;;;10.70;67.00;;;;;;5034021;28;20182;-69
2023/10/19 04:44:54;;;;;;;14.47;11.60;;;10.60;66.70;;;;;;5033900;28;20195;-69
2023/10/19 04:47:20;;;;;;;14.00;12.17;;;10.60;68.50;;;;;;5033693;28;20785;-70
2023/10/19 04:49:45;;;;;;;13.20;11.90;;;10.60;67.80;;;;;;5033825;28;20414;-71
2023/10/19 04:52:11;;;;;;;10.30;9.00;;;10.60;67.80;;;;;;5032572;28;20573;-70
2023/10/19 04:54:37;;;;;;;11.17;9.80;;;10.60;69.20;;;;;;5033579;28;20669;-70
2023/10/19 04:57:03;;;;;;;10.80;7.80;;;10.50;68.20;;;;;;5033611;28;20171;-71
2023/10/19 04:59:32;;;;;;;12.23;10.57;;;10.50;70.70;;;;;;5033114;28;20453;-70
2023/10/19 05:02:01;;;;;;;11.63;8.33;;;10.50;70.80;;;;;;5032316;28;20479;-70
2023/10/19 05:04:30;;;;;;;11.67;9.33;;;10.60;71.50;;;;;;5033276;28;20501;-71
2023/10/19 05:06:55;;;;;;;12.30;11.03;;;10.60;71.80;;;;;;5033569;28;20414;-71
2023/10/19 05:09:21;;;;;;;9.87;7.87;;;10.70;71.90;;;;;;5033672;28;20556;-70
2023/10/19 05:11:48;;;;;;;8.47;7.00;;;10.70;72.10;;;;;;5033886;28;20182;-71
2023/10/19 05:14:13;;;;;;;10.20;7.50;;;10.70;71.90;;;;;;5033968;28;20167;-71
2023/10/19 05:16:42;;;;;;;12.50;7.50;;;10.80;72.00;;;;;;5031998;28;20442;-69
2023/10/19 05:19:08;;;;;;;9.70;8.70;;;10.80;72.00;;;;;;5033439;28;20413;-70
2023/10/19 05:21:34;;;;;;;11.40;8.07;;;10.90;72.10;;;;;;5032351;28;20944;-70
2023/10/19 05:24:00;;;;;;;11.33;9.13;;;11.00;72.20;;;;;;5033500;28;20229;-70
2023/10/19 05:26:26;;;;;;;9.03;7.50;;;11.00;72.20;;;;;;5032254;28;20437;-69
2023/10/19 05:28:52;;;;;;;9.80;7.30;;;11.00;72.20;;;;;;5033640;28;20920;-70
2023/10/19 05:31:17;;;;;;;7.27;6.00;;;11.00;72.20;;;;;;5033334;28;20518;-70
2023/10/19 05:33:43;;;;;;;10.57;6.70;;;11.10;72.30;;;;;;5032163;28;20597;-71
2023/10/19 05:36:08;;;;;;;10.17;6.33;;;11.10;72.30;;;;;;5033347;28;20702;-71
2023/10/19 05:38:34;;;;;;;7.30;6.27;;;11.20;71.50;;;;;;5033523;28;20229;-72
2023/10/19 05:41:00;;;;;;;9.00;5.47;;;11.20;70.80;;;;;;5036098;28;20207;-73
2023/10/19 05:43:26;;;;;;;6.93;5.43;;;11.40;56.60;;;;;;5035978;28;20410;-73
2023/10/19 05:45:52;;;;;;;6.83;5.87;;;11.40;55.90;;;;;;5035925;28;20187;-71
2023/10/19 05:48:17;;;;;;;7.77;5.97;;;11.50;56.20;;;;;;5033900;28;20940;-74
2023/10/19 05:50:43;;;;;;;10.93;8.33;;;11.60;56.50;;;;;;5036209;28;20180;-74
2023/10/19 05:53:08;;;;;;;11.20;7.17;;;11.60;55.20;;;;;;5035480;28;20172;-74
2023/10/19 05:55:35;;;;;;;7.83;7.10;;;11.60;56.20;;;;;;5033211;28;20591;-73
2023/10/19 05:58:04;;;;;;;8.43;6.67;;;11.70;55.10;;;;;;5033784;28;20210;-74
2023/10/19 06:00:30;;;;;;;8.40;5.90;;;11.80;54.50;;;;;;5034257;28;20462;-73
2023/10/19 06:02:57;;;;;;;7.93;7.13;;;11.80;54.90;;;;;;5035448;28;21031;-74
2023/10/19 06:05:23;;;;;;;9.60;6.07;;;11.90;54.10;;;;;;5031596;28;20546;-70
2023/10/19 06:07:50;;;;;;;7.47;5.87;;;11.90;53.00;;;;;;5032361;28;20426;-70
2023/10/19 06:10:20;;;;;;;8.67;6.47;;;12.00;54.40;;;;;;5032690;28;20414;-69
2023/10/19 06:12:49;;;;;;;9.90;7.37;;;12.00;53.10;;;;;;5032579;28;20732;-69
2023/10/19 06:15:16;;;;;;;7.23;5.93;;;12.20;53.30;;;;;;5032599;28;20460;-71
2023/10/19 06:17:43;;;;;;;7.37;6.27;;;12.20;51.40;;;;;;5032151;28;20425;-71
2023/10/19 06:20:19;;;;;;;10.70;6.00;;;12.30;50.90;;;;;;5032264;28;20467;-70
2023/10/19 06:22:50;;;;;;;8.80;7.63;;;12.40;48.50;;;;;;5033038;28;20458;-72
2023/10/19 06:25:21;;;;;;;11.10;7.90;;;12.50;48.60;;;;;;5032766;28;20430;-70
2023/10/19 06:27:47;;;;;;;10.33;7.70;;;12.50;55.80;;;;;;5033084;28;20462;-69
2023/10/19 06:30:22;;;;;;;14.03;8.10;;;12.60;64.40;;;;;;5032453;28;20431;-70
2023/10/19 06:32:50;;;;;;;10.10;8.77;;;12.70;61.60;;;;;;5031834;28;20950;-73
2023/10/19 06:35:16;;;;;;;7.20;6.03;;;12.80;63.30;;;;;;5012488;28;20798;-72
2023/10/19 06:37:43;;;;;;;8.83;7.60;;;12.80;61.80;;;;;;5013676;28;20431;-73
2023/10/19 06:40:11;;;;;;;8.47;6.93;;;12.80;61.40;;;;;;5012665;28;20469;-72
2023/10/19 06:42:37;;;;;;;8.50;7.23;;;12.80;61.50;;;;;;5013559;28;20410;-72
2023/10/19 06:45:03;;;;;;;16.60;8.20;;;12.90;62.30;;;;;;5011229;28;20434;-72
2023/10/19 06:47:29;;;;;;;8.67;6.87;;;12.90;60.10;;;;;;5012320;28;20806;-70
2023/10/19 06:49:55;;;;;;;9.93;7.40;;;13.00;58.90;;;;;;5012679;28;20435;-72
2023/10/19 06:52:21;;;;;;;8.37;6.70;;;13.00;59.00;;;;;;5012482;28;20427;-70
2023/10/19 06:54:47;;;;;;;9.47;8.57;;;13.00;58.30;;;;;;5012126;28;20878;-72
2023/10/19 06:57:12;;;;;;;10.00;5.93;;;12.90;59.20;;;;;;5012101;28;20902;-71
2023/10/19 06:59:38;;;;;;;8.03;6.20;;;12.90;60.10;;;;;;5010745;28;20210;-71
2023/10/19 07:02:04;;;;;;;9.10;7.30;;;13.00;60.90;;;;;;5012036;28;20184;-71
2023/10/19 07:04:30;;;;;;;8.27;6.27;;;13.00;61.40;;;;;;5011740;28;20419;-71
2023/10/19 07:06:56;;;;;;;11.80;5.93;;;13.00;62.40;;;;;;5011928;28;20185;-70
2023/10/19 07:09:23;;;;;;;5.80;4.23;;;13.10;62.00;;;;;;5011929;28;20187;-72
2023/10/19 07:11:52;;;;;;;5.83;4.33;;;13.20;60.80;;;;;;5020537;28;20471;-72
2023/10/19 07:14:19;;;;;;;7.10;4.93;;;13.30;61.10;;;;;;5026187;28;20439;-71
2023/10/19 07:16:44;;;;;;;9.00;6.40;;;13.40;59.00;;;;;;5025440;28;20496;-72
2023/10/19 07:19:10;;;;;;;5.63;4.63;;;13.50;57.90;;;;;;5016826;28;20441;-71
2023/10/19 07:21:37;;;;;;;5.97;4.50;;;13.60;59.30;;;;;;5031166;28;20271;-70
2023/10/19 07:24:05;;;;;;;6.57;4.07;;;13.80;57.90;;;;;;5031880;28;20193;-71
2023/10/19 07:26:33;;;;;;;5.77;3.97;;;14.00;56.50;;;;;;5031641;28;20440;-71
2023/10/19 07:28:59;;;;;;;3.90;3.30;;;14.20;55.10;;;;;;5025526;28;20429;-71
2023/10/19 07:31:27;;;;;;;4.43;3.40;;;14.30;52.30;;;;;;5025622;28;20426;-71
2023/10/19 07:33:55;;;;;;;4.10;2.83;;;14.40;47.80;;;;;;5031736;28;20416;-73
2023/10/19 07:36:21;;;;;;;4.67;3.80;;;14.50;45.40;;;;;;5031865;28;20829;-69
2023/10/19 07:38:47;;;;;;;7.67;5.40;;;14.50;45.30;;;;;;5031486;28;20994;-71
2023/10/19 07:41:13;;;;;;;4.60;4.20;;;14.50;45.90;;;;;;5034554;28;20641;-70
2023/10/19 07:43:39;;;;;;;7.27;6.33;;;14.50;46.40;;;;;;5035401;28;20418;-72
2023/10/19 07:46:08;;;;;;;6.30;5.13;;;14.50;45.60;;;;;;5035648;28;20191;-72
2023/10/19 07:48:33;;;;;;;8.80;5.83;;;14.70;44.60;;;;;;5035658;28;20463;-71
2023/10/19 07:50:59;;;;;;;9.37;6.17;;;14.70;44.80;;;;;;5033762;28;20434;-68
2023/10/19 07:53:25;;;;;;;7.03;5.30;;;14.80;43.10;;;;;;5027555;28;20191;-70
2023/10/19 07:55:52;;;;;;;9.43;6.60;;;14.80;43.80;;;;;;5021723;28;20299;-70
2023/10/19 07:58:17;;;;;;;10.83;7.60;;;14.80;40.50;;;;;;5033521;28;20434;-71
2023/10/19 08:00:46;;;;;;;13.00;10.30;;;14.80;41.00;;;;;;5034774;28;20453;-68
2023/10/19 08:03:13;;;;;;;11.70;9.37;;;14.90;39.90;;;;;;5035236;28;20510;-71
2023/10/19 08:05:39;;;;;;;9.60;8.50;;;15.00;37.10;;;;;;5025595;28;20474;-70
2023/10/19 08:08:05;;;;;;;20.13;10.67;;;15.00;36.80;;;;;;5014060;28;20427;-70
2023/10/19 08:10:31;;;;;;;10.20;9.07;;;15.00;36.80;;;;;;5023033;28;20218;-70
2023/10/19 08:12:58;;;;;;;12.80;8.20;;;15.00;38.30;;;;;;5034971;28;20428;-70
2023/10/19 08:15:24;;;;;;;12.90;8.77;;;15.20;37.80;;;;;;5035167;28;20425;-70
2023/10/19 08:17:53;;;;;;;8.97;8.07;;;15.40;34.40;;;;;;5034695;28;20439;-69
2023/10/19 08:20:30;;;;;;;10.03;6.70;;;15.50;34.30;;;;;;5034613;28;20198;-69
2023/10/19 08:22:59;;;;;;;7.07;6.37;;;15.40;34.00;;;;;;5035205;28;20424;-70
2023/10/19 08:25:27;;;;;;;10.67;9.53;;;15.70;33.60;;;;;;5034952;28;20440;-70
2023/10/19 08:27:56;;;;;;;9.30;7.37;;;15.80;29.90;;;;;;5034344;28;20417;-70
2023/10/19 08:30:23;;;;;;;12.47;9.63;;;15.90;27.80;;;;;;5034674;28;20410;-71
2023/10/19 08:32:51;;;;;;;11.03;8.47;;;15.90;28.50;;;;;;5034643;28;20413;-71
2023/10/19 08:35:24;;;;;;;12.13;9.33;;;16.00;26.70;;;;;;5034727;28;20868;-71
2023/10/19 08:37:50;;;;;;;10.53;8.83;;;16.10;27.70;;;;;;5033329;28;20476;-70
2023/10/19 08:40:17;;;;;;;11.50;8.23;;;16.40;27.60;;;;;;5034645;28;20827;-70
2023/10/19 08:42:45;;;;;;;10.30;8.30;;;16.70;28.30;;;;;;5034563;28;20414;-71
2023/10/19 08:45:14;;;;;;;10.17;8.30;;;17.00;26.60;;;;;;5033124;28;20434;-71
2023/10/19 08:47:53;;;;;;;9.33;7.70;;;17.20;24.50;;;;;;5034479;28;20632;-70
2023/10/19 08:50:23;;;;;;;13.80;7.00;;;17.40;23.00;;;;;;5034670;28;20521;-71
2023/10/19 08:52:53;;;;;;;10.23;8.03;;;17.50;21.40;;;;;;5033306;28;20987;-70
2023/10/19 08:55:19;;;;;;;19.43;8.37;;;17.60;20.50;;;;;;5034389;28;20959;-70
2023/10/19 08:57:48;;;;;;;13.90;7.90;;;17.60;20.30;;;;;;5034377;28;20777;-71
2023/10/19 09:00:17;;;;;;;8.07;6.70;;;17.60;19.30;;;;;;5034205;28;20754;-71
2023/10/19 09:02:43;;;;;;;11.00;7.90;;;17.70;21.50;;;;;;5032893;28;20505;-70
2023/10/19 09:05:19;;;;;;;9.47;7.53;;;17.80;19.90;;;;;;5034045;28;20620;-71
2023/10/19 09:07:47;;;;;;;8.17;7.10;;;17.80;19.20;;;;;;5033866;28;20190;-71
2023/10/19 09:10:16;;;;;;;8.20;7.00;;;17.80;19.40;;;;;;5033847;28;20972;-71
2023/10/19 09:12:42;;;;;;;8.57;7.10;;;17.80;19.40;;;;;;5034424;28;20421;-71
2023/10/19 09:15:21;;;;;;;11.90;7.47;;;17.70;19.70;;;;;;5033773;28;20945;-70
2023/10/19 09:17:49;;;;;;;6.33;5.73;;;17.60;21.10;;;;;;5032618;28;20428;-70
2023/10/19 09:20:18;;;;;;;9.77;7.27;;;17.70;21.40;;;;;;5033860;28;20476;-71
2023/10/19 09:22:44;;;;;;;8.60;7.80;;;17.60;21.20;;;;;;5033661;28;20415;-70
2023/10/19 09:25:10;;;;;;;10.63;8.97;;;17.60;21.50;;;;;;5033436;28;20453;-70
2023/10/19 09:27:35;;;;;;;10.70;6.63;;;17.70;21.50;;;;;;5033381;28;20170;-71
2023/10/19 09:30:07;;;;;;;8.57;6.73;;;17.90;20.90;;;;;;5033499;28;20545;-71
2023/10/19 09:32:33;;;;;;;10.60;9.30;;;18.00;19.60;;;;;;5033470;28;20651;-71
2023/10/19 09:34:59;;;;;;;8.70;6.97;;;18.10;19.60;;;;;;5033290;28;20437;-71
2023/10/19 09:37:26;;;;;;;13.57;7.70;;;17.90;19.50;;;;;;5033330;28;20954;-71
2023/10/19 09:39:52;;;;;;;8.50;6.93;;;18.00;19.60;;;;;;5032149;28;20453;-70
2023/10/19 09:42:18;;;;;;;9.50;7.47;;;18.10;19.60;;;;;;5033255;28;20414;-70
2023/10/19 09:44:47;;;;;;;11.43;6.03;;;17.90;19.50;;;;;;5033339;28;21098;-71
2023/10/19 09:47:27;;;;;;;8.00;7.00;;;17.80;19.30;;;;;;5033115;28;20168;-71
2023/10/19 09:49:53;;;;;;;9.43;6.17;;;17.80;19.30;;;;;;5033298;28;20802;-71
2023/10/19 09:52:20;;;;;;;7.13;6.43;;;17.70;19.30;;;;;;5033387;28;20497;-70
2023/10/19 09:54:54;;;;;;;9.30;7.13;;;17.60;20.30;;;;;;5031801;28;20817;-71
2023/10/19 09:57:31;;;;;;;10.90;7.33;;;17.50;20.80;;;;;;5032796;28;20451;-70
2023/10/19 10:00:08;;;;;;;9.90;6.30;;;17.40;21.40;;;;;;5033381;28;20457;-70
2023/10/19 10:02:35;;;;;;;8.07;7.27;;;17.50;21.70;;;;;;5032773;28;20489;-71
2023/10/19 10:05:01;;;;;;;10.77;7.60;;;17.70;21.70;;;;;;5031031;28;20557;-71
2023/10/19 10:07:27;;;;;;;13.17;7.70;;;17.70;21.60;;;;;;5031286;28;20505;-71
2023/10/19 10:09:54;;;;;;;9.33;7.40;;;17.70;21.50;;;;;;5032739;28;20863;-70
2023/10/19 10:12:24;;;;;;;11.73;8.20;;;17.80;21.90;;;;;;5032659;28;20426;-70
2023/10/19 10:15:03;;;;;;;8.70;7.83;;;17.80;22.10;;;;;;5032579;28;20434;-70
2023/10/19 10:17:29;;;;;;;10.60;7.17;;;17.90;22.50;;;;;;5032505;28;20448;-71
2023/10/19 10:20:14;;;;;;;10.50;5.63;;;18.10;22.40;;;;;;5032485;28;20976;-70
2023/10/19 10:22:43;;;;;;;6.07;5.00;;;18.20;19.70;;;;;;5032375;28;20421;-70
2023/10/19 10:25:29;;;;;;;11.13;5.30;;;18.30;19.80;;;;;;5032540;28;20832;-70
2023/10/19 10:27:55;;;;;;;12.97;5.67;;;18.60;19.80;;;;;;5032397;28;20422;-71
2023/10/19 10:30:21;;;;;;;9.27;6.10;;;18.70;20.00;;;;;;5031452;28;20410;-71
2023/10/19 10:32:50;;;;;;;8.90;6.40;;;18.80;19.10;;;;;;5032648;28;20410;-71
2023/10/19 10:35:38;;;;;;;8.13;7.33;;;19.00;17.70;;;;;;5032318;28;20445;-71
2023/10/19 10:38:13;;;;;;;8.70;7.13;;;19.40;17.10;;;;;;5032134;28;20406;-71
2023/10/19 10:40:43;;;;;;;8.50;5.53;;;19.70;15.00;;;;;;5030820;28;20468;-70
2023/10/19 10:43:10;;;;;;;11.50;6.73;;;19.80;14.60;;;;;;5030769;28;20422;-70
2023/10/19 10:45:36;;;;;;;8.27;7.07;;;19.50;14.70;;;;;;5030689;28;20581;-71
2023/10/19 10:48:01;;;;;;;8.13;7.30;;;19.50;14.20;;;;;;5032021;28;21043;-71
2023/10/19 10:50:30;;;;;;;10.53;9.20;;;19.40;14.80;;;;;;5032200;28;20175;-70
2023/10/19 10:52:59;;;;;;;9.37;8.43;;;19.30;14.20;;;;;;5032231;28;20187;-70
2023/10/19 10:55:25;;;;;;;11.10;8.57;;;19.20;14.60;;;;;;5032082;28;20517;-71
2023/10/19 10:57:51;;;;;;;9.10;8.13;;;18.80;16.90;;;;;;5031937;28;20497;-70
2023/10/19 11:00:17;;;;;;;9.53;7.43;;;18.40;19.00;;;;;;5032025;28;20206;-70
2023/10/19 11:02:47;;;;;;;8.63;7.70;;;18.40;19.80;;;;;;5032040;28;20446;-70
2023/10/19 11:05:14;;;;;;;12.43;10.17;;;18.40;19.80;;;;;;5032212;28;20441;-71
2023/10/19 11:08:01;;;;;;;13.13;10.70;;;18.20;19.80;;;;;;5031784;28;20421;-71
2023/10/19 11:10:27;;;;;;;13.27;9.70;;;17.90;21.40;;;;;;5031460;28;20425;-69
2023/10/19 11:13:03;;;;;;;9.87;7.97;;;17.60;23.20;;;;;;5031901;28;20432;-71
2023/10/19 11:15:28;;;;;;;11.57;9.00;;;17.60;24.70;;;;;;5031265;28;20446;-71
2023/10/19 11:17:54;;;;;;;13.57;9.50;;;17.40;27.70;;;;;;5033888;28;20442;-70
2023/10/19 11:20:24;;;;;;;14.80;9.33;;;17.30;29.20;;;;;;5031864;28;20238;-71
2023/10/19 11:22:52;;;;;;;16.00;9.43;;;17.30;31.40;;;;;;5031813;28;20195;-71
2023/10/19 11:25:23;;;;;;;14.83;9.57;;;17.30;30.30;;;;;;5031843;28;20510;-71
2023/10/19 11:27:48;;;;;;;9.33;8.20;;;17.30;31.10;;;;;;5031813;28;20402;-71
2023/10/19 11:30:26;;;;;;;11.27;9.53;;;17.20;33.70;;;;;;5030570;28;20838;-71
2023/10/19 11:32:56;;;;;;;12.03;9.50;;;17.30;33.80;;;;;;5032258;28;20546;-70
2023/10/19 11:35:22;;;;;;;8.17;7.37;;;17.50;33.20;;;;;;5032257;28;20434;-71
2023/10/19 11:37:52;;;;;;;9.57;8.57;;;17.70;33.50;;;;;;5030382;28;20792;-70
2023/10/19 11:40:22;;;;;;;9.83;8.83;;;18.00;31.90;;;;;;5030317;28;20987;-71
2023/10/19 11:42:49;;;;;;;22.73;12.40;;;18.00;29.60;;;;;;5031657;28;20501;-70
2023/10/19 11:45:16;;;;;;;20.17;16.20;;;18.10;29.70;;;;;;5031480;28;20426;-70
2023/10/19 11:47:45;;;;;;;15.70;12.90;;;18.10;29.70;;;;;;5031537;28;20411;-70
2023/10/19 11:50:15;;;;;;;15.30;13.07;;;18.20;29.90;;;;;;5031600;28;20425;-71
2023/10/19 11:52:48;;;;;;;21.40;16.63;;;18.20;30.40;;;;;;5032063;28;20505;-71
2023/10/19 11:55:15;;;;;;;12.73;9.40;;;18.30;29.90;;;;;;5030209;28;20442;-71
2023/10/19 11:57:44;;;;;;;6.63;5.60;;;18.20;30.30;;;;;;5031254;28;20436;-70
2023/10/19 12:00:13;;;;;;;6.07;4.57;;;18.10;29.10;;;;;;5031562;28;20457;-71
2023/10/19 12:02:43;;;;;;;5.53;4.13;;;17.80;30.20;;;;;;5030363;28;20449;-70
2023/10/19 12:05:12;;;;;;;5.63;5.00;;;17.70;32.50;;;;;;5031535;28;20503;-70
2023/10/19 12:07:38;;;;;;;5.43;3.40;;;17.60;34.70;;;;;;5031551;28;20417;-70
2023/10/19 12:10:09;;;;;;;7.20;3.63;;;17.70;35.20;;;;;;5030473;28;20414;-71
2023/10/19 12:12:35;;;;;;;4.10;2.67;;;17.60;36.30;;;;;;5031479;28;20414;-71
2023/10/19 12:15:02;;;;;;;4.37;2.00;;;17.60;35.70;;;;;;5031564;28;20438;-71
2023/10/19 12:17:29;;;;;;;3.83;2.10;;;17.50;34.20;;;;;;5031642;28;20406;-71
2023/10/19 12:19:55;;;;;;;3.87;2.20;;;17.40;33.40;;;;;;5030632;28;20980;-70
2023/10/19 12:22:21;;;;;;;4.50;1.60;;;17.40;34.00;;;;;;5030590;28;20448;-71
2023/10/19 12:24:47;;;;;;;3.53;2.07;;;17.40;33.70;;;;;;5031770;28;20266;-72
2023/10/19 12:27:13;;;;;;;4.23;2.13;;;17.50;33.90;;;;;;5032665;28;20262;-71
2023/10/19 12:29:39;;;;;;;4.63;3.47;;;17.70;33.30;;;;;;5033460;28;20802;-70
2023/10/19 12:32:06;;;;;;;5.50;2.57;;;17.70;33.70;;;;;;5034669;28;20438;-70
2023/10/19 12:34:31;;;;;;;4.00;2.97;;;17.80;32.90;;;;;;5034495;28;20179;-70
2023/10/19 12:36:58;;;;;;;5.10;3.33;;;17.80;33.30;;;;;;5034460;28;20414;-71
2023/10/19 12:39:40;;;;;;;3.37;2.53;;;17.70;33.80;;;;;;5034410;28;20211;-71
2023/10/19 12:42:07;;;;;;;3.50;3.07;;;17.70;34.80;;;;;;5034487;28;20421;-70
2023/10/19 12:44:39;;;;;;;5.73;2.70;;;17.80;36.00;;;;;;5033152;28;20433;-71
2023/10/19 12:47:09;;;;;;;4.23;3.37;;;17.80;36.60;;;;;;5034175;28;20410;-70
2023/10/19 12:49:35;;;;;;;4.80;3.00;;;17.80;36.40;;;;;;5034326;28;20819;-71
2023/10/19 12:52:03;;;;;;;3.70;2.57;;;17.90;36.70;;;;;;5034304;28;20418;-70
2023/10/19 12:54:29;;;;;;;6.80;4.17;;;18.00;36.70;;;;;;5034068;28;20963;-70
2023/10/19 12:56:55;;;;;;;4.17;3.00;;;18.10;35.00;;;;;;5034534;28;20422;-70
2023/10/19 12:59:21;;;;;;;4.23;3.50;;;18.40;34.20;;;;;;5034275;28;20414;-71
2023/10/19 13:01:48;;;;;;;4.00;2.70;;;18.60;33.70;;;;;;5034611;28;20263;-70
2023/10/19 13:04:18;;;;;;;3.27;2.23;;;19.00;33.00;;;;;;5034725;28;20417;-70